North Conway, New Hampshire
Current Conditions -  °F | °C
As of 4:54 PM on Thursday 23 Oct 2014 (Local Time) from KIZG Reporting Station
Overcast Overcast  
Wind Chill: 46°   Ceiling: 2000
Heat Index: 49°   Visibility: 10mi
Dew Point: 46°   Wind: 7mph
Humidity: 90%   Direction: 20°NNE
Pressure: 29.8"   Gusts: NA
Location:  44.05°N, 71.13°W
Report Text: KIZG 232054Z AUTO 02006KT 10SM BKN020 OVC027 09/08 A2980 RMK AO2 RAE24 SLP094 P0002 60030 T00940078 55004
Loading
Personal Weather Stations






























Interactive Weather Map New forecast layout! Learn more

10-Day Weather Forecast

Advertisements
Track Severe Weather on mobile